Terminal Aerodrome Forecast
Issued by NWS

Home | Current Version | Previous Version | Text Only | Print | Product List | Glossary On
Versions: 1 2 3 4 5 6 7 8 9 10 11 12 13 14
000
FTUS44 KTSA 271100
TAFRVS
TAF
KRVS 271139Z 2712/2812 06011KT P6SM VCSH BKN050
     FM271400 06012G18KT P6SM BKN080
     FM271800 08014G20KT P6SM -RA BKN035 PROB30 2721/2801 4SM -TSRA
      BKN025CB
     FM280100 03009KT 5SM -RA BR BKN015=

USA.gov is the U.S. government's official web portal to all federal, state and local government web resources and services.